FIN1814 LIRQ-EFHK
Flight info
| Callsign | FIN1814 |
|---|---|
| Flight time | 2h 44m |
| Altitude | 37000 |
| Route | GAVRA DCT ARMIX DCT DOL DCT ARLON DCT RADLY DCT VAMET DCT LEDVA DCT BAVOK DCT UVROB DCT ASBIM DCT BOKSU DCT PELUT DCT ROLAV/N0436F380 DCT KEMET/N0433F370 Q11 INTOR |
| Aircraft | A319/M-SDE3FGHIRWY/LB1 |
Departure
| Time | 2026-05-06 16:51 |
|---|---|
| Airport | Florence Airport, Peretola (LIRQ) |
Arrival
| Time | 2026-05-06 19:35 |
|---|---|
| Airport | Helsinki Vantaa Airport (EFHK) |
| Time | Latitude | Longitude | Altitude | Speed | Heading |
|---|---|---|---|---|---|
| 2026-05-06 16:12 | 43.80296 | 11.20032 | 127 ft | 0 kts | 159° |
| 2026-05-06 16:40 | 43.80304 | 11.20028 | 124 ft | 3 kts | 159° |
| 2026-05-06 16:40 | 43.80323 | 11.20017 | 126 ft | 3 kts | 155° |
| 2026-05-06 16:40 | 43.80340 | 11.20005 | 123 ft | 3 kts | 140° |
| 2026-05-06 16:41 | 43.80352 | 11.19987 | 126 ft | 3 kts | 98° |
| 2026-05-06 16:41 | 43.80353 | 11.19977 | 126 ft | 1 kts | 82° |
| 2026-05-06 16:41 | 43.80352 | 11.19977 | 126 ft | 0 kts | 82° |
| 2026-05-06 16:45 | 43.80354 | 11.19991 | 125 ft | 3 kts | 82° |
| 2026-05-06 16:45 | 43.80368 | 11.20026 | 126 ft | 4 kts | 37° |
| 2026-05-06 16:45 | 43.80387 | 11.20034 | 128 ft | 3 kts | 10° |
| 2026-05-06 16:45 | 43.80415 | 11.20039 | 131 ft | 6 kts | 8° |
| 2026-05-06 16:46 | 43.80467 | 11.20048 | 132 ft | 9 kts | 2° |
| 2026-05-06 16:46 | 43.80517 | 11.19996 | 134 ft | 10 kts | 320° |
| 2026-05-06 16:46 | 43.80597 | 11.20006 | 132 ft | 14 kts | 13° |
| 2026-05-06 16:46 | 43.80702 | 11.20051 | 132 ft | 16 kts | 33° |
| 2026-05-06 16:47 | 43.80782 | 11.20165 | 133 ft | 18 kts | 48° |
| 2026-05-06 16:47 | 43.80875 | 11.20308 | 127 ft | 23 kts | 47° |
| 2026-05-06 16:47 | 43.80995 | 11.20494 | 124 ft | 30 kts | 49° |
| 2026-05-06 16:47 | 43.81143 | 11.20722 | 127 ft | 33 kts | 48° |
| 2026-05-06 16:48 | 43.81268 | 11.20944 | 134 ft | 23 kts | 79° |
| 2026-05-06 16:48 | 43.81259 | 11.21148 | 140 ft | 17 kts | 95° |
| 2026-05-06 16:48 | 43.81295 | 11.21272 | 144 ft | 13 kts | 48° |
| 2026-05-06 16:48 | 43.81364 | 11.21373 | 145 ft | 16 kts | 33° |
| 2026-05-06 16:49 | 43.81482 | 11.21346 | 140 ft | 20 kts | 342° |
| 2026-05-06 16:49 | 43.81490 | 11.21261 | 132 ft | 6 kts | 228° |
| 2026-05-06 16:49 | 43.81489 | 11.21258 | 132 ft | 0 kts | 228° |
| 2026-05-06 16:50 | 43.81399 | 11.21120 | 133 ft | 61 kts | 228° |
| 2026-05-06 16:50 | 43.80912 | 11.20363 | 130 ft | 146 kts | 229° |
| 2026-05-06 16:51 | 43.80261 | 11.19194 | 784 ft | 160 kts | 248° |
| 2026-05-06 16:51 | 43.80241 | 11.17650 | 1510 ft | 174 kts | 287° |
| 2026-05-06 16:51 | 43.80666 | 11.15944 | 1907 ft | 200 kts | 277° |
| 2026-05-06 16:51 | 43.80779 | 11.13962 | 2550 ft | 209 kts | 272° |
| 2026-05-06 16:52 | 43.80859 | 11.11918 | 3384 ft | 212 kts | 271° |
| 2026-05-06 16:52 | 43.80936 | 11.09890 | 4328 ft | 210 kts | 270° |
| 2026-05-06 16:52 | 43.81017 | 11.07863 | 5175 ft | 212 kts | 270° |
| 2026-05-06 16:52 | 43.81104 | 11.05821 | 5989 ft | 213 kts | 269° |
| 2026-05-06 16:53 | 43.81198 | 11.03763 | 6774 ft | 216 kts | 270° |
| 2026-05-06 16:53 | 43.81716 | 11.01773 | 7444 ft | 233 kts | 304° |
| 2026-05-06 16:53 | 43.83135 | 11.00570 | 8183 ft | 253 kts | 344° |
| 2026-05-06 16:53 | 43.84909 | 11.00778 | 8937 ft | 267 kts | 22° |
| 2026-05-06 16:54 | 43.86340 | 11.02402 | 9664 ft | 271 kts | 61° |
| 2026-05-06 16:54 | 43.86856 | 11.04844 | 10356 ft | 263 kts | 99° |
| 2026-05-06 16:54 | 43.86367 | 11.07165 | 11066 ft | 252 kts | 126° |
| 2026-05-06 16:54 | 43.85449 | 11.09228 | 11830 ft | 252 kts | 132° |
| 2026-05-06 16:55 | 43.84461 | 11.11246 | 12604 ft | 255 kts | 132° |
| 2026-05-06 16:55 | 43.83452 | 11.13291 | 13374 ft | 258 kts | 132° |
| 2026-05-06 16:55 | 43.82440 | 11.15358 | 14094 ft | 263 kts | 129° |
| 2026-05-06 16:55 | 43.81558 | 11.17630 | 14752 ft | 271 kts | 122° |
| 2026-05-06 16:56 | 43.80916 | 11.20127 | 15413 ft | 283 kts | 106° |
| 2026-05-06 16:56 | 43.80740 | 11.22955 | 15742 ft | 309 kts | 96° |
| 2026-05-06 16:56 | 43.80651 | 11.26036 | 15964 ft | 332 kts | 97° |
| 2026-05-06 16:56 | 43.80512 | 11.29333 | 16134 ft | 355 kts | 98° |
| 2026-05-06 16:57 | 43.80335 | 11.32845 | 16312 ft | 375 kts | 97° |
| 2026-05-06 16:57 | 43.80138 | 11.36488 | 16855 ft | 383 kts | 97° |
| 2026-05-06 16:57 | 43.79937 | 11.40186 | 17479 ft | 388 kts | 97° |
| 2026-05-06 16:57 | 43.79734 | 11.43939 | 18129 ft | 393 kts | 97° |
| 2026-05-06 16:58 | 43.79532 | 11.47727 | 18712 ft | 398 kts | 97° |
| 2026-05-06 16:58 | 43.79327 | 11.51572 | 19267 ft | 403 kts | 98° |
| 2026-05-06 16:58 | 43.79117 | 11.55459 | 19837 ft | 407 kts | 98° |
| 2026-05-06 16:58 | 43.78900 | 11.59391 | 20394 ft | 411 kts | 98° |
| 2026-05-06 16:59 | 43.78679 | 11.63357 | 20949 ft | 416 kts | 99° |
| 2026-05-06 16:59 | 43.78453 | 11.67369 | 21496 ft | 420 kts | 99° |
| 2026-05-06 16:59 | 43.78225 | 11.71414 | 22022 ft | 425 kts | 99° |
| 2026-05-06 16:59 | 43.78160 | 11.75541 | 22548 ft | 435 kts | 90° |
| 2026-05-06 17:00 | 43.78658 | 11.79717 | 23072 ft | 445 kts | 77° |
| 2026-05-06 17:00 | 43.79769 | 11.83766 | 23564 ft | 454 kts | 64° |
| 2026-05-06 17:00 | 43.81464 | 11.87470 | 24085 ft | 457 kts | 51° |
| 2026-05-06 17:00 | 43.83623 | 11.90697 | 24635 ft | 457 kts | 43° |
| 2026-05-06 17:01 | 43.85889 | 11.93803 | 25113 ft | 459 kts | 44° |
| 2026-05-06 17:01 | 43.88162 | 11.96934 | 25531 ft | 462 kts | 44° |
| 2026-05-06 17:01 | 43.90449 | 12.00090 | 25944 ft | 465 kts | 44° |
| 2026-05-06 17:01 | 43.92751 | 12.03268 | 26358 ft | 469 kts | 44° |
| 2026-05-06 17:02 | 43.95068 | 12.06469 | 26709 ft | 472 kts | 44° |
| 2026-05-06 17:02 | 43.97400 | 12.09696 | 27094 ft | 475 kts | 44° |
| 2026-05-06 17:02 | 43.99748 | 12.12950 | 27471 ft | 479 kts | 44° |
| 2026-05-06 17:02 | 44.02111 | 12.16228 | 27880 ft | 482 kts | 44° |
| 2026-05-06 17:03 | 44.04488 | 12.19526 | 28270 ft | 485 kts | 44° |
| 2026-05-06 17:03 | 44.06885 | 12.22854 | 28645 ft | 489 kts | 44° |
| 2026-05-06 17:03 | 44.09298 | 12.26206 | 29048 ft | 492 kts | 44° |
| 2026-05-06 17:03 | 44.11724 | 12.29583 | 29429 ft | 495 kts | 44° |
| 2026-05-06 17:04 | 44.14163 | 12.32987 | 29788 ft | 498 kts | 44° |
| 2026-05-06 17:04 | 44.16616 | 12.36418 | 30115 ft | 501 kts | 44° |
| 2026-05-06 17:04 | 44.19083 | 12.39870 | 30422 ft | 504 kts | 44° |
| 2026-05-06 17:04 | 44.21565 | 12.43346 | 30749 ft | 505 kts | 44° |
| 2026-05-06 17:05 | 44.24008 | 12.46770 | 31110 ft | 505 kts | 44° |
| 2026-05-06 17:05 | 44.26492 | 12.50247 | 31431 ft | 507 kts | 44° |
| 2026-05-06 17:05 | 44.28981 | 12.53739 | 31792 ft | 507 kts | 44° |
| 2026-05-06 17:05 | 44.31463 | 12.57228 | 32229 ft | 506 kts | 44° |
| 2026-05-06 17:06 | 44.33947 | 12.60724 | 32631 ft | 506 kts | 44° |
| 2026-05-06 17:06 | 44.36416 | 12.64208 | 33040 ft | 505 kts | 45° |
| 2026-05-06 17:06 | 44.38888 | 12.67700 | 33469 ft | 505 kts | 45° |
| 2026-05-06 17:06 | 44.41353 | 12.71190 | 33893 ft | 504 kts | 45° |
| 2026-05-06 17:07 | 44.43812 | 12.74677 | 34278 ft | 503 kts | 45° |
| 2026-05-06 17:07 | 44.46266 | 12.78159 | 34648 ft | 502 kts | 45° |
| 2026-05-06 17:07 | 44.48715 | 12.81632 | 35035 ft | 500 kts | 44° |
| 2026-05-06 17:07 | 44.51157 | 12.85096 | 35400 ft | 499 kts | 44° |
| 2026-05-06 17:08 | 44.53590 | 12.88553 | 35749 ft | 498 kts | 44° |
| 2026-05-06 17:08 | 44.56011 | 12.92004 | 36119 ft | 495 kts | 44° |
| 2026-05-06 17:08 | 44.58419 | 12.95439 | 36492 ft | 493 kts | 44° |
| 2026-05-06 17:08 | 44.60820 | 12.98866 | 36807 ft | 492 kts | 44° |
| 2026-05-06 17:09 | 44.63215 | 13.02292 | 36903 ft | 490 kts | 44° |
| 2026-05-06 17:09 | 44.67963 | 13.09106 | 36904 ft | 487 kts | 44° |
| 2026-05-06 17:10 | 44.72708 | 13.15916 | 36904 ft | 487 kts | 44° |
| 2026-05-06 17:10 | 44.77441 | 13.22729 | 36909 ft | 487 kts | 44° |
| 2026-05-06 17:11 | 44.82176 | 13.29561 | 36901 ft | 487 kts | 44° |
| 2026-05-06 17:11 | 44.86869 | 13.36351 | 36915 ft | 487 kts | 44° |
| 2026-05-06 17:12 | 44.91589 | 13.43199 | 36909 ft | 487 kts | 44° |
| 2026-05-06 17:12 | 44.96302 | 13.50051 | 36920 ft | 486 kts | 44° |
| 2026-05-06 17:13 | 45.01006 | 13.56915 | 36940 ft | 485 kts | 45° |
| 2026-05-06 17:13 | 45.05685 | 13.63761 | 36957 ft | 483 kts | 45° |
| 2026-05-06 17:14 | 45.10342 | 13.70599 | 36954 ft | 483 kts | 45° |
| 2026-05-06 17:14 | 45.14996 | 13.77443 | 36961 ft | 482 kts | 45° |
| 2026-05-06 17:15 | 45.19650 | 13.84271 | 36968 ft | 481 kts | 45° |
| 2026-05-06 17:15 | 45.24289 | 13.91106 | 36964 ft | 480 kts | 45° |
| 2026-05-06 17:16 | 45.28908 | 13.97942 | 36961 ft | 480 kts | 45° |
| 2026-05-06 17:16 | 45.33522 | 14.04791 | 36970 ft | 479 kts | 45° |
| 2026-05-06 17:17 | 45.38119 | 14.11640 | 36967 ft | 478 kts | 45° |
| 2026-05-06 17:17 | 45.42669 | 14.18441 | 36972 ft | 477 kts | 45° |
| 2026-05-06 17:18 | 45.47276 | 14.25209 | 36970 ft | 474 kts | 40° |
| 2026-05-06 17:18 | 45.52680 | 14.30500 | 36970 ft | 471 kts | 28° |
| 2026-05-06 17:19 | 45.58342 | 14.35231 | 36953 ft | 471 kts | 28° |
| 2026-05-06 17:19 | 45.63982 | 14.39994 | 36949 ft | 471 kts | 28° |
| 2026-05-06 17:20 | 45.69625 | 14.44767 | 36937 ft | 471 kts | 28° |
| 2026-05-06 17:20 | 45.75277 | 14.49554 | 36918 ft | 472 kts | 28° |
| 2026-05-06 17:21 | 45.80934 | 14.54358 | 36915 ft | 473 kts | 28° |
| 2026-05-06 17:21 | 45.86595 | 14.59173 | 36915 ft | 473 kts | 28° |
| 2026-05-06 17:22 | 45.92261 | 14.64009 | 36918 ft | 473 kts | 28° |
| 2026-05-06 17:22 | 45.97914 | 14.68854 | 36917 ft | 473 kts | 28° |
| 2026-05-06 17:23 | 46.03532 | 14.73666 | 36911 ft | 473 kts | 28° |
| 2026-05-06 17:23 | 46.09187 | 14.78501 | 36931 ft | 472 kts | 27° |
| 2026-05-06 17:24 | 46.14943 | 14.83023 | 36931 ft | 470 kts | 24° |
| 2026-05-06 17:24 | 46.20776 | 14.87296 | 36937 ft | 470 kts | 24° |
| 2026-05-06 17:25 | 46.26595 | 14.91613 | 36926 ft | 470 kts | 25° |
| 2026-05-06 17:25 | 46.32379 | 14.96031 | 36924 ft | 470 kts | 25° |
| 2026-05-06 17:26 | 46.38151 | 15.00487 | 36902 ft | 470 kts | 25° |
| 2026-05-06 17:26 | 46.43912 | 15.04929 | 36926 ft | 468 kts | 25° |
| 2026-05-06 17:27 | 46.49669 | 15.09347 | 36921 ft | 467 kts | 25° |
| 2026-05-06 17:27 | 46.55387 | 15.13734 | 36911 ft | 467 kts | 25° |
| 2026-05-06 17:28 | 46.61130 | 15.18160 | 36914 ft | 467 kts | 25° |
| 2026-05-06 17:28 | 46.66876 | 15.22608 | 36887 ft | 467 kts | 25° |
| 2026-05-06 17:29 | 46.71644 | 15.26303 | 36867 ft | 467 kts | 25° |
| 2026-05-06 17:29 | 46.77383 | 15.30759 | 36855 ft | 467 kts | 25° |
| 2026-05-06 17:30 | 46.83177 | 15.35107 | 36842 ft | 467 kts | 24° |
| 2026-05-06 17:30 | 46.89006 | 15.39274 | 36837 ft | 467 kts | 23° |
| 2026-05-06 17:31 | 46.94842 | 15.43467 | 36827 ft | 467 kts | 24° |
| 2026-05-06 17:31 | 47.00631 | 15.47707 | 36834 ft | 468 kts | 24° |
| 2026-05-06 17:32 | 47.06449 | 15.51994 | 36833 ft | 468 kts | 24° |
| 2026-05-06 17:32 | 47.12259 | 15.56277 | 36856 ft | 467 kts | 24° |
| 2026-05-06 17:33 | 47.18042 | 15.60546 | 36864 ft | 468 kts | 24° |
| 2026-05-06 17:33 | 47.23866 | 15.64862 | 36848 ft | 469 kts | 24° |
| 2026-05-06 17:34 | 47.29686 | 15.69180 | 36845 ft | 469 kts | 24° |
| 2026-05-06 17:34 | 47.35531 | 15.73524 | 36856 ft | 470 kts | 24° |
| 2026-05-06 17:35 | 47.41379 | 15.77876 | 36834 ft | 471 kts | 25° |
| 2026-05-06 17:35 | 47.47235 | 15.82259 | 36821 ft | 472 kts | 25° |
| 2026-05-06 17:36 | 47.56021 | 15.88851 | 36831 ft | 473 kts | 24° |
| 2026-05-06 17:36 | 47.61904 | 15.93271 | 36802 ft | 474 kts | 24° |
| 2026-05-06 17:37 | 47.67785 | 15.97705 | 36781 ft | 475 kts | 24° |
| 2026-05-06 17:37 | 47.73685 | 16.02163 | 36770 ft | 476 kts | 24° |
| 2026-05-06 17:38 | 47.79597 | 16.06645 | 36760 ft | 477 kts | 24° |
| 2026-05-06 17:38 | 47.85518 | 16.11144 | 36765 ft | 478 kts | 25° |
| 2026-05-06 17:39 | 47.91435 | 16.15656 | 36776 ft | 478 kts | 25° |
| 2026-05-06 17:39 | 47.97360 | 16.20187 | 36784 ft | 478 kts | 24° |
| 2026-05-06 17:40 | 48.03254 | 16.24695 | 36783 ft | 477 kts | 24° |
| 2026-05-06 17:40 | 48.09149 | 16.29219 | 36784 ft | 476 kts | 24° |
| 2026-05-06 17:41 | 48.15039 | 16.33748 | 36775 ft | 475 kts | 24° |
| 2026-05-06 17:41 | 48.20874 | 16.38252 | 36777 ft | 474 kts | 24° |
| 2026-05-06 17:42 | 48.26737 | 16.42792 | 36774 ft | 474 kts | 25° |
| 2026-05-06 17:42 | 48.32592 | 16.47333 | 36771 ft | 473 kts | 25° |
| 2026-05-06 17:43 | 48.38445 | 16.51878 | 36774 ft | 473 kts | 24° |
| 2026-05-06 17:43 | 48.44282 | 16.56428 | 36764 ft | 472 kts | 24° |
| 2026-05-06 17:44 | 48.50095 | 16.61059 | 36751 ft | 474 kts | 28° |
| 2026-05-06 17:44 | 48.56083 | 16.65022 | 36745 ft | 470 kts | 15° |
| 2026-05-06 17:45 | 48.62252 | 16.68315 | 36737 ft | 470 kts | 15° |
| 2026-05-06 17:45 | 48.68396 | 16.71589 | 36735 ft | 471 kts | 15° |
| 2026-05-06 17:46 | 48.74578 | 16.74887 | 36751 ft | 471 kts | 15° |
| 2026-05-06 17:46 | 48.80760 | 16.78213 | 36744 ft | 472 kts | 15° |
| 2026-05-06 17:47 | 48.86956 | 16.81560 | 36744 ft | 472 kts | 15° |
| 2026-05-06 17:47 | 48.93146 | 16.84910 | 36749 ft | 473 kts | 15° |
| 2026-05-06 17:48 | 48.99346 | 16.88279 | 36754 ft | 473 kts | 15° |
| 2026-05-06 17:48 | 49.05542 | 16.91657 | 36765 ft | 473 kts | 15° |
| 2026-05-06 17:49 | 49.11743 | 16.95042 | 36767 ft | 473 kts | 15° |
| 2026-05-06 17:49 | 49.17939 | 16.98438 | 36785 ft | 473 kts | 15° |
| 2026-05-06 17:50 | 49.23842 | 17.02903 | 36766 ft | 480 kts | 38° |
| 2026-05-06 17:50 | 49.28674 | 17.09978 | 36768 ft | 481 kts | 43° |
| 2026-05-06 17:51 | 49.33436 | 17.17169 | 36759 ft | 480 kts | 43° |
| 2026-05-06 17:51 | 49.38190 | 17.24335 | 36783 ft | 479 kts | 43° |
| 2026-05-06 17:52 | 49.42950 | 17.31493 | 36792 ft | 478 kts | 43° |
| 2026-05-06 17:52 | 49.47701 | 17.38649 | 36793 ft | 478 kts | 43° |
| 2026-05-06 17:53 | 49.52412 | 17.45785 | 36791 ft | 478 kts | 43° |
| 2026-05-06 17:53 | 49.57141 | 17.52979 | 36804 ft | 478 kts | 43° |
| 2026-05-06 17:54 | 49.61867 | 17.60197 | 36790 ft | 478 kts | 43° |
| 2026-05-06 17:54 | 49.66598 | 17.67422 | 36789 ft | 479 kts | 43° |
| 2026-05-06 17:55 | 49.71334 | 17.74681 | 36786 ft | 479 kts | 43° |
| 2026-05-06 17:55 | 49.76066 | 17.81959 | 36784 ft | 480 kts | 43° |
| 2026-05-06 17:56 | 49.80795 | 17.89253 | 36784 ft | 480 kts | 43° |
| 2026-05-06 17:56 | 49.85519 | 17.96553 | 36790 ft | 480 kts | 43° |
| 2026-05-06 17:57 | 49.90249 | 18.03881 | 36796 ft | 480 kts | 43° |
| 2026-05-06 17:57 | 49.94972 | 18.11223 | 36811 ft | 481 kts | 43° |
| 2026-05-06 17:58 | 49.99732 | 18.18538 | 36805 ft | 480 kts | 39° |
| 2026-05-06 17:58 | 50.05137 | 18.24534 | 36795 ft | 477 kts | 31° |
| 2026-05-06 17:59 | 50.10675 | 18.30246 | 36789 ft | 478 kts | 31° |
| 2026-05-06 17:59 | 50.16217 | 18.35988 | 36800 ft | 478 kts | 31° |
| 2026-05-06 18:00 | 50.21748 | 18.41735 | 36796 ft | 478 kts | 31° |
| 2026-05-06 18:00 | 50.27242 | 18.47470 | 36798 ft | 478 kts | 31° |
| 2026-05-06 18:01 | 50.32781 | 18.53254 | 36812 ft | 478 kts | 31° |
| 2026-05-06 18:01 | 50.38304 | 18.59045 | 36807 ft | 478 kts | 31° |
| 2026-05-06 18:02 | 50.43823 | 18.64855 | 36803 ft | 477 kts | 31° |
| 2026-05-06 18:02 | 50.49332 | 18.70652 | 36792 ft | 477 kts | 31° |
| 2026-05-06 18:03 | 50.54846 | 18.76475 | 36800 ft | 477 kts | 31° |
| 2026-05-06 18:03 | 50.60349 | 18.82309 | 36794 ft | 477 kts | 31° |
| 2026-05-06 18:04 | 50.65849 | 18.88162 | 36804 ft | 477 kts | 31° |
| 2026-05-06 18:04 | 50.71358 | 18.94028 | 36804 ft | 477 kts | 31° |
| 2026-05-06 18:05 | 50.76857 | 18.99900 | 36809 ft | 477 kts | 31° |
| 2026-05-06 18:05 | 50.82346 | 19.05781 | 36803 ft | 477 kts | 31° |
| 2026-05-06 18:06 | 50.87831 | 19.11690 | 36797 ft | 476 kts | 31° |
| 2026-05-06 18:06 | 50.93271 | 19.17559 | 36783 ft | 476 kts | 31° |
| 2026-05-06 18:07 | 50.98731 | 19.23465 | 36804 ft | 474 kts | 31° |
| 2026-05-06 18:07 | 51.04177 | 19.29373 | 36798 ft | 474 kts | 31° |
| 2026-05-06 18:08 | 51.09621 | 19.35289 | 36798 ft | 473 kts | 31° |
| 2026-05-06 18:08 | 51.15052 | 19.41214 | 36798 ft | 473 kts | 32° |
| 2026-05-06 18:09 | 51.20480 | 19.47166 | 36798 ft | 473 kts | 31° |
| 2026-05-06 18:09 | 51.25894 | 19.53105 | 36793 ft | 473 kts | 32° |
| 2026-05-06 18:10 | 51.31315 | 19.59078 | 36794 ft | 473 kts | 32° |
| 2026-05-06 18:10 | 51.36692 | 19.65019 | 36802 ft | 473 kts | 32° |
| 2026-05-06 18:11 | 51.41228 | 19.70036 | 36801 ft | 472 kts | 32° |
| 2026-05-06 18:11 | 51.47507 | 19.77002 | 36795 ft | 472 kts | 32° |
| 2026-05-06 18:12 | 51.52909 | 19.83010 | 36795 ft | 472 kts | 32° |
| 2026-05-06 18:12 | 51.58304 | 19.89033 | 36807 ft | 472 kts | 32° |
| 2026-05-06 18:13 | 51.63694 | 19.95080 | 36806 ft | 472 kts | 32° |
| 2026-05-06 18:13 | 51.69074 | 20.01129 | 36802 ft | 471 kts | 32° |
| 2026-05-06 18:14 | 51.74448 | 20.07184 | 36795 ft | 471 kts | 32° |
| 2026-05-06 18:14 | 51.79816 | 20.13248 | 36792 ft | 471 kts | 32° |
| 2026-05-06 18:15 | 51.85183 | 20.19318 | 36789 ft | 470 kts | 32° |
| 2026-05-06 18:15 | 51.89636 | 20.24367 | 36787 ft | 471 kts | 32° |
| 2026-05-06 18:16 | 51.95863 | 20.31469 | 36785 ft | 470 kts | 32° |
| 2026-05-06 18:16 | 52.01207 | 20.37593 | 36799 ft | 470 kts | 32° |
| 2026-05-06 18:17 | 52.05683 | 20.42726 | 36794 ft | 470 kts | 32° |
| 2026-05-06 18:17 | 52.11013 | 20.48856 | 36788 ft | 469 kts | 32° |
| 2026-05-06 18:18 | 52.16308 | 20.54961 | 36786 ft | 469 kts | 33° |
| 2026-05-06 18:18 | 52.21637 | 20.61134 | 36793 ft | 470 kts | 33° |
| 2026-05-06 18:19 | 52.26965 | 20.67309 | 36796 ft | 469 kts | 33° |
| 2026-05-06 18:19 | 52.32286 | 20.73487 | 36775 ft | 469 kts | 33° |
| 2026-05-06 18:20 | 52.37586 | 20.79674 | 36787 ft | 468 kts | 33° |
| 2026-05-06 18:20 | 52.42880 | 20.85887 | 36800 ft | 468 kts | 33° |
| 2026-05-06 18:21 | 52.48138 | 20.92073 | 36799 ft | 468 kts | 33° |
| 2026-05-06 18:21 | 52.53422 | 20.98295 | 36796 ft | 467 kts | 33° |
| 2026-05-06 18:22 | 52.58693 | 21.04525 | 36793 ft | 467 kts | 33° |
| 2026-05-06 18:22 | 52.63960 | 21.10824 | 36797 ft | 468 kts | 34° |
| 2026-05-06 18:23 | 52.69209 | 21.17156 | 36789 ft | 468 kts | 34° |
| 2026-05-06 18:23 | 52.74466 | 21.23518 | 36781 ft | 468 kts | 34° |
| 2026-05-06 18:24 | 52.79719 | 21.29869 | 36780 ft | 468 kts | 34° |
| 2026-05-06 18:24 | 52.84982 | 21.36239 | 36774 ft | 468 kts | 34° |
| 2026-05-06 18:25 | 52.90232 | 21.42627 | 36767 ft | 469 kts | 34° |
| 2026-05-06 18:25 | 52.95490 | 21.49045 | 36777 ft | 470 kts | 34° |
| 2026-05-06 18:26 | 53.00712 | 21.55443 | 36766 ft | 470 kts | 34° |
| 2026-05-06 18:26 | 53.05977 | 21.61921 | 36779 ft | 470 kts | 34° |
| 2026-05-06 18:27 | 53.11225 | 21.68400 | 36774 ft | 470 kts | 35° |
| 2026-05-06 18:27 | 53.16475 | 21.74880 | 36782 ft | 469 kts | 34° |
| 2026-05-06 18:28 | 53.21861 | 21.81040 | 36769 ft | 468 kts | 31° |
| 2026-05-06 18:28 | 53.27333 | 21.86945 | 36777 ft | 468 kts | 31° |
| 2026-05-06 18:29 | 53.32790 | 21.92916 | 36764 ft | 469 kts | 31° |
| 2026-05-06 18:29 | 53.38175 | 21.98973 | 36764 ft | 469 kts | 32° |
| 2026-05-06 18:30 | 53.43588 | 22.05103 | 36764 ft | 470 kts | 32° |
| 2026-05-06 18:30 | 53.49012 | 22.11240 | 36772 ft | 470 kts | 32° |
| 2026-05-06 18:31 | 53.54446 | 22.17392 | 36771 ft | 471 kts | 32° |
| 2026-05-06 18:31 | 53.59877 | 22.23552 | 36774 ft | 471 kts | 32° |
| 2026-05-06 18:32 | 53.65306 | 22.29733 | 36779 ft | 471 kts | 32° |
| 2026-05-06 18:32 | 53.70737 | 22.35942 | 36787 ft | 471 kts | 32° |
| 2026-05-06 18:33 | 53.76158 | 22.42160 | 36785 ft | 471 kts | 32° |
| 2026-05-06 18:33 | 53.81565 | 22.48386 | 36785 ft | 471 kts | 32° |
| 2026-05-06 18:34 | 53.86942 | 22.54585 | 36791 ft | 471 kts | 32° |
| 2026-05-06 18:34 | 53.92350 | 22.60849 | 36769 ft | 471 kts | 32° |
| 2026-05-06 18:35 | 53.97753 | 22.67139 | 36784 ft | 471 kts | 32° |
| 2026-05-06 18:35 | 54.03164 | 22.73448 | 36790 ft | 471 kts | 32° |
| 2026-05-06 18:36 | 54.08564 | 22.79754 | 36795 ft | 471 kts | 32° |
| 2026-05-06 18:36 | 54.13970 | 22.86087 | 36816 ft | 472 kts | 32° |
| 2026-05-06 18:37 | 54.19379 | 22.92449 | 36800 ft | 472 kts | 32° |
| 2026-05-06 18:37 | 54.24795 | 22.98845 | 36801 ft | 473 kts | 32° |
| 2026-05-06 18:38 | 54.30307 | 23.04938 | 36802 ft | 470 kts | 23° |
| 2026-05-06 18:38 | 54.36420 | 23.08581 | 36812 ft | 463 kts | 11° |
| 2026-05-06 18:39 | 54.42651 | 23.11471 | 36812 ft | 464 kts | 11° |
| 2026-05-06 18:40 | 54.51967 | 23.15890 | 36808 ft | 464 kts | 11° |
| 2026-05-06 18:40 | 54.58192 | 23.18850 | 36807 ft | 465 kts | 11° |
| 2026-05-06 18:41 | 54.64438 | 23.21817 | 36826 ft | 465 kts | 11° |
| 2026-05-06 18:41 | 54.70688 | 23.24786 | 36814 ft | 466 kts | 11° |
| 2026-05-06 18:42 | 54.76953 | 23.27772 | 36807 ft | 467 kts | 11° |
| 2026-05-06 18:42 | 54.83216 | 23.30778 | 36813 ft | 467 kts | 11° |
| 2026-05-06 18:43 | 54.89488 | 23.33813 | 36819 ft | 468 kts | 11° |
| 2026-05-06 18:43 | 54.95763 | 23.36848 | 36820 ft | 468 kts | 11° |
| 2026-05-06 18:44 | 55.02044 | 23.39877 | 36825 ft | 469 kts | 11° |
| 2026-05-06 18:44 | 55.08295 | 23.42908 | 36827 ft | 469 kts | 11° |
| 2026-05-06 18:45 | 55.14580 | 23.45986 | 36849 ft | 470 kts | 11° |
| 2026-05-06 18:45 | 55.20883 | 23.49072 | 36841 ft | 470 kts | 11° |
| 2026-05-06 18:46 | 55.27184 | 23.52162 | 36843 ft | 470 kts | 11° |
| 2026-05-06 18:46 | 55.33489 | 23.55265 | 36850 ft | 471 kts | 11° |
| 2026-05-06 18:47 | 55.39795 | 23.58384 | 36857 ft | 471 kts | 11° |
| 2026-05-06 18:47 | 55.46099 | 23.61520 | 36851 ft | 471 kts | 11° |
| 2026-05-06 18:48 | 55.52409 | 23.64604 | 36851 ft | 470 kts | 11° |
| 2026-05-06 18:48 | 55.58717 | 23.67667 | 36849 ft | 470 kts | 11° |
| 2026-05-06 18:49 | 55.65031 | 23.70756 | 36875 ft | 471 kts | 11° |
| 2026-05-06 18:49 | 55.71303 | 23.73838 | 36874 ft | 471 kts | 11° |
| 2026-05-06 18:50 | 55.77626 | 23.76948 | 36883 ft | 471 kts | 11° |
| 2026-05-06 18:50 | 55.83940 | 23.80086 | 36891 ft | 471 kts | 11° |
| 2026-05-06 18:51 | 55.90257 | 23.83232 | 36902 ft | 471 kts | 11° |
| 2026-05-06 18:51 | 55.96579 | 23.86376 | 36934 ft | 472 kts | 11° |
| 2026-05-06 18:52 | 56.02893 | 23.89535 | 36918 ft | 472 kts | 11° |
| 2026-05-06 18:52 | 56.09211 | 23.92702 | 36917 ft | 471 kts | 11° |
| 2026-05-06 18:53 | 56.15535 | 23.95894 | 36926 ft | 472 kts | 12° |
| 2026-05-06 18:53 | 56.21861 | 23.99090 | 36919 ft | 472 kts | 12° |
| 2026-05-06 18:54 | 56.28186 | 24.02294 | 36930 ft | 472 kts | 11° |
| 2026-05-06 18:54 | 56.34608 | 24.04179 | 36927 ft | 466 kts | 2° |
| 2026-05-06 18:55 | 56.41063 | 24.05564 | 36934 ft | 467 kts | 2° |
| 2026-05-06 18:55 | 56.47505 | 24.06962 | 36942 ft | 467 kts | 2° |
| 2026-05-06 18:56 | 56.53917 | 24.08352 | 36945 ft | 467 kts | 2° |
| 2026-05-06 18:56 | 56.60368 | 24.09754 | 36949 ft | 467 kts | 2° |
| 2026-05-06 18:57 | 56.66817 | 24.11158 | 36957 ft | 467 kts | 2° |
| 2026-05-06 18:57 | 56.73275 | 24.12566 | 36984 ft | 467 kts | 2° |
| 2026-05-06 18:58 | 56.79730 | 24.13986 | 36983 ft | 467 kts | 2° |
| 2026-05-06 18:58 | 56.86187 | 24.15415 | 36982 ft | 467 kts | 2° |
| 2026-05-06 18:59 | 56.92644 | 24.16841 | 36989 ft | 467 kts | 2° |
| 2026-05-06 18:59 | 56.99102 | 24.18256 | 37001 ft | 467 kts | 2° |
| 2026-05-06 19:00 | 57.05558 | 24.19696 | 36986 ft | 467 kts | 2° |
| 2026-05-06 19:00 | 57.11967 | 24.21139 | 36981 ft | 467 kts | 2° |
| 2026-05-06 19:01 | 57.18423 | 24.22593 | 36980 ft | 467 kts | 2° |
| 2026-05-06 19:01 | 57.24888 | 24.24048 | 36997 ft | 467 kts | 2° |
| 2026-05-06 19:02 | 57.31333 | 24.25509 | 36993 ft | 467 kts | 2° |
| 2026-05-06 19:02 | 57.37777 | 24.26974 | 36985 ft | 466 kts | 2° |
| 2026-05-06 19:03 | 57.44221 | 24.28435 | 36981 ft | 466 kts | 2° |
| 2026-05-06 19:03 | 57.50646 | 24.29902 | 36977 ft | 465 kts | 2° |
| 2026-05-06 19:04 | 57.57076 | 24.31382 | 36989 ft | 465 kts | 2° |
| 2026-05-06 19:04 | 57.63488 | 24.32858 | 36980 ft | 464 kts | 2° |
| 2026-05-06 19:05 | 57.69889 | 24.34331 | 36976 ft | 464 kts | 2° |
| 2026-05-06 19:05 | 57.75217 | 24.35548 | 36973 ft | 464 kts | 2° |
| 2026-05-06 19:06 | 57.81627 | 24.37027 | 36987 ft | 464 kts | 2° |
| 2026-05-06 19:06 | 57.88038 | 24.38543 | 36977 ft | 464 kts | 2° |
| 2026-05-06 19:07 | 57.94436 | 24.40048 | 36975 ft | 464 kts | 2° |
| 2026-05-06 19:07 | 58.00836 | 24.41551 | 36974 ft | 464 kts | 2° |
| 2026-05-06 19:08 | 58.07247 | 24.43068 | 36972 ft | 464 kts | 2° |
| 2026-05-06 19:08 | 58.13654 | 24.44574 | 36989 ft | 464 kts | 2° |
| 2026-05-06 19:09 | 58.20026 | 24.46066 | 36986 ft | 464 kts | 2° |
| 2026-05-06 19:09 | 58.26437 | 24.47587 | 36981 ft | 464 kts | 2° |
| 2026-05-06 19:10 | 58.32847 | 24.49127 | 36982 ft | 464 kts | 2° |
| 2026-05-06 19:10 | 58.39258 | 24.50681 | 37020 ft | 464 kts | 2° |
| 2026-05-06 19:11 | 58.45659 | 24.52226 | 37009 ft | 464 kts | 2° |
| 2026-05-06 19:11 | 58.52027 | 24.53774 | 37001 ft | 464 kts | 2° |
| 2026-05-06 19:12 | 58.58432 | 24.55320 | 36994 ft | 464 kts | 2° |
| 2026-05-06 19:12 | 58.64861 | 24.56874 | 36461 ft | 467 kts | 2° |
| 2026-05-06 19:12 | 58.68085 | 24.57658 | 35952 ft | 466 kts | 3° |
| 2026-05-06 19:13 | 58.71305 | 24.58445 | 35471 ft | 467 kts | 3° |
| 2026-05-06 19:13 | 58.74524 | 24.59312 | 34991 ft | 469 kts | 5° |
| 2026-05-06 19:13 | 58.77747 | 24.60371 | 34497 ft | 469 kts | 7° |
| 2026-05-06 19:13 | 58.80942 | 24.61553 | 34036 ft | 467 kts | 8° |
| 2026-05-06 19:14 | 58.84128 | 24.62797 | 33479 ft | 466 kts | 8° |
| 2026-05-06 19:14 | 58.87300 | 24.64043 | 32933 ft | 464 kts | 8° |
| 2026-05-06 19:14 | 58.90459 | 24.65259 | 32396 ft | 462 kts | 7° |
| 2026-05-06 19:14 | 58.93609 | 24.66434 | 31860 ft | 460 kts | 7° |
| 2026-05-06 19:15 | 58.96753 | 24.67576 | 31353 ft | 457 kts | 6° |
| 2026-05-06 19:15 | 58.99875 | 24.68693 | 30866 ft | 455 kts | 6° |
| 2026-05-06 19:15 | 59.02979 | 24.69803 | 30370 ft | 453 kts | 6° |
| 2026-05-06 19:15 | 59.06022 | 24.70901 | 29847 ft | 451 kts | 6° |
| 2026-05-06 19:16 | 59.09096 | 24.72019 | 29288 ft | 448 kts | 6° |
| 2026-05-06 19:16 | 59.12191 | 24.73152 | 28722 ft | 446 kts | 6° |
| 2026-05-06 19:16 | 59.15231 | 24.74270 | 28177 ft | 443 kts | 6° |
| 2026-05-06 19:16 | 59.18219 | 24.75370 | 27643 ft | 441 kts | 6° |
| 2026-05-06 19:17 | 59.21224 | 24.76474 | 27111 ft | 439 kts | 6° |
| 2026-05-06 19:17 | 59.24222 | 24.77576 | 26599 ft | 437 kts | 6° |
| 2026-05-06 19:17 | 59.27195 | 24.78666 | 26092 ft | 435 kts | 5° |
| 2026-05-06 19:17 | 59.30164 | 24.79754 | 25591 ft | 433 kts | 5° |
| 2026-05-06 19:18 | 59.33154 | 24.80855 | 25096 ft | 431 kts | 5° |
| 2026-05-06 19:18 | 59.36055 | 24.81929 | 24618 ft | 429 kts | 5° |
| 2026-05-06 19:18 | 59.38994 | 24.83027 | 24140 ft | 428 kts | 5° |
| 2026-05-06 19:18 | 59.41885 | 24.84482 | 23665 ft | 433 kts | 15° |
| 2026-05-06 19:19 | 59.44675 | 24.86745 | 23131 ft | 433 kts | 19° |
| 2026-05-06 19:19 | 59.47448 | 24.89055 | 22586 ft | 432 kts | 19° |
| 2026-05-06 19:19 | 59.50218 | 24.91355 | 22048 ft | 431 kts | 19° |
| 2026-05-06 19:19 | 59.52973 | 24.93642 | 21530 ft | 429 kts | 19° |
| 2026-05-06 19:20 | 59.55714 | 24.95923 | 21027 ft | 426 kts | 18° |
| 2026-05-06 19:20 | 59.58438 | 24.98190 | 20518 ft | 423 kts | 18° |
| 2026-05-06 19:20 | 59.61143 | 25.00444 | 20016 ft | 420 kts | 18° |
| 2026-05-06 19:20 | 59.63829 | 25.02687 | 19525 ft | 417 kts | 18° |
| 2026-05-06 19:21 | 59.66490 | 25.04917 | 19038 ft | 414 kts | 19° |
| 2026-05-06 19:21 | 59.69098 | 25.07113 | 18568 ft | 410 kts | 19° |
| 2026-05-06 19:21 | 59.71718 | 25.09324 | 18058 ft | 406 kts | 19° |
| 2026-05-06 19:21 | 59.74306 | 25.11505 | 17517 ft | 402 kts | 19° |
| 2026-05-06 19:22 | 59.76876 | 25.13667 | 16983 ft | 398 kts | 19° |
| 2026-05-06 19:22 | 59.79418 | 25.15815 | 16450 ft | 394 kts | 19° |
| 2026-05-06 19:22 | 59.81897 | 25.17920 | 15957 ft | 390 kts | 19° |
| 2026-05-06 19:22 | 59.84377 | 25.20029 | 15489 ft | 384 kts | 19° |
| 2026-05-06 19:23 | 59.86820 | 25.22103 | 15030 ft | 378 kts | 19° |
| 2026-05-06 19:23 | 59.89244 | 25.24000 | 14584 ft | 370 kts | 13° |
| 2026-05-06 19:23 | 59.91744 | 25.24834 | 14154 ft | 359 kts | 359° |
| 2026-05-06 19:23 | 59.94180 | 25.24625 | 13701 ft | 351 kts | 352° |
| 2026-05-06 19:24 | 59.96600 | 25.24273 | 13234 ft | 346 kts | 352° |
| 2026-05-06 19:24 | 59.98985 | 25.23934 | 12744 ft | 341 kts | 353° |
| 2026-05-06 19:24 | 60.01336 | 25.23604 | 12267 ft | 336 kts | 353° |
| 2026-05-06 19:24 | 60.03664 | 25.23282 | 11791 ft | 332 kts | 353° |
| 2026-05-06 19:25 | 60.05958 | 25.22967 | 11326 ft | 327 kts | 353° |
| 2026-05-06 19:25 | 60.08197 | 25.22654 | 10871 ft | 324 kts | 354° |
| 2026-05-06 19:25 | 60.10439 | 25.22337 | 10414 ft | 320 kts | 354° |
| 2026-05-06 19:25 | 60.12650 | 25.22020 | 9968 ft | 317 kts | 354° |
| 2026-05-06 19:26 | 60.14841 | 25.21704 | 9481 ft | 313 kts | 354° |
| 2026-05-06 19:26 | 60.17010 | 25.21388 | 8987 ft | 310 kts | 354° |
| 2026-05-06 19:26 | 60.19127 | 25.21080 | 8526 ft | 307 kts | 355° |
| 2026-05-06 19:26 | 60.21259 | 25.20778 | 8050 ft | 304 kts | 356° |
| 2026-05-06 19:27 | 60.23336 | 25.21245 | 7574 ft | 302 kts | 17° |
| 2026-05-06 19:27 | 60.25239 | 25.22983 | 7115 ft | 299 kts | 26° |
| 2026-05-06 19:27 | 60.27074 | 25.24875 | 6653 ft | 292 kts | 27° |
| 2026-05-06 19:27 | 60.28853 | 25.26723 | 6218 ft | 282 kts | 27° |
| 2026-05-06 19:28 | 60.30551 | 25.28493 | 5796 ft | 273 kts | 27° |
| 2026-05-06 19:28 | 60.32214 | 25.30225 | 5372 ft | 264 kts | 27° |
| 2026-05-06 19:28 | 60.33832 | 25.31908 | 4943 ft | 257 kts | 27° |
| 2026-05-06 19:28 | 60.35399 | 25.33543 | 4520 ft | 250 kts | 27° |
| 2026-05-06 19:29 | 60.36935 | 25.35150 | 4094 ft | 244 kts | 26° |
| 2026-05-06 19:29 | 60.38473 | 25.36529 | 3676 ft | 241 kts | 13° |
| 2026-05-06 19:29 | 60.40112 | 25.36689 | 3268 ft | 239 kts | 351° |
| 2026-05-06 19:29 | 60.41652 | 25.35505 | 2851 ft | 238 kts | 327° |
| 2026-05-06 19:30 | 60.42917 | 25.33336 | 2428 ft | 238 kts | 317° |
| 2026-05-06 19:30 | 60.44127 | 25.31104 | 2221 ft | 229 kts | 317° |
| 2026-05-06 19:30 | 60.45176 | 25.28848 | 2218 ft | 216 kts | 299° |
| 2026-05-06 19:30 | 60.45394 | 25.25949 | 2226 ft | 214 kts | 257° |
| 2026-05-06 19:31 | 60.44621 | 25.23391 | 2239 ft | 216 kts | 229° |
| 2026-05-06 19:31 | 60.43588 | 25.21188 | 2230 ft | 215 kts | 227° |
| 2026-05-06 19:31 | 60.41622 | 25.16877 | 2223 ft | 194 kts | 229° |
| 2026-05-06 19:32 | 60.40740 | 25.14916 | 2242 ft | 184 kts | 229° |
| 2026-05-06 19:32 | 60.39899 | 25.13046 | 2161 ft | 181 kts | 229° |
| 2026-05-06 19:32 | 60.39061 | 25.11183 | 1965 ft | 176 kts | 229° |
| 2026-05-06 19:32 | 60.38244 | 25.09370 | 1746 ft | 171 kts | 228° |
| 2026-05-06 19:33 | 60.37475 | 25.07667 | 1527 ft | 154 kts | 229° |
| 2026-05-06 19:33 | 60.36799 | 25.06168 | 1324 ft | 135 kts | 229° |
| 2026-05-06 19:33 | 60.36196 | 25.04832 | 1132 ft | 126 kts | 229° |
| 2026-05-06 19:33 | 60.35612 | 25.03543 | 958 ft | 123 kts | 229° |
| 2026-05-06 19:34 | 60.35034 | 25.02254 | 756 ft | 124 kts | 228° |
| 2026-05-06 19:34 | 60.34449 | 25.00955 | 602 ft | 126 kts | 227° |
| 2026-05-06 19:34 | 60.33860 | 24.99649 | 431 ft | 125 kts | 229° |
| 2026-05-06 19:34 | 60.33282 | 24.98375 | 267 ft | 124 kts | 228° |
| 2026-05-06 19:35 | 60.32715 | 24.97131 | 173 ft | 108 kts | 227° |
| 2026-05-06 19:35 | 60.32305 | 24.96223 | 177 ft | 62 kts | 227° |
| 2026-05-06 19:35 | 60.32143 | 24.95867 | 177 ft | 17 kts | 224° |
| 2026-05-06 19:35 | 60.32090 | 24.95813 | 175 ft | 10 kts | 192° |
| 2026-05-06 19:36 | 60.32021 | 24.95848 | 173 ft | 12 kts | 141° |
| 2026-05-06 19:36 | 60.31966 | 24.95966 | 172 ft | 12 kts | 127° |
| 2026-05-06 19:36 | 60.32005 | 24.96120 | 169 ft | 15 kts | 47° |
| 2026-05-06 19:36 | 60.32081 | 24.96288 | 168 ft | 17 kts | 47° |
| 2026-05-06 19:37 | 60.32166 | 24.96473 | 168 ft | 19 kts | 47° |
| 2026-05-06 19:37 | 60.32241 | 24.96641 | 168 ft | 12 kts | 47° |
| 2026-05-06 19:37 | 60.32211 | 24.96776 | 166 ft | 14 kts | 147° |
| 2026-05-06 19:37 | 60.32154 | 24.96847 | 166 ft | 14 kts | 149° |
| 2026-05-06 19:38 | 60.32029 | 24.96985 | 166 ft | 16 kts | 153° |
| 2026-05-06 19:38 | 60.31952 | 24.97066 | 166 ft | 7 kts | 152° |
| 2026-05-06 19:38 | 60.31924 | 24.97047 | 166 ft | 5 kts | 239° |
| 2026-05-06 19:38 | 60.31908 | 24.96986 | 167 ft | 5 kts | 243° |
| 2026-05-06 19:39 | 60.31900 | 24.96955 | 167 ft | 0 kts | 242° |